Santa Fe, NM

03:46 PM MDT am 28. April 2017 (GMT -0600)
Governor Lindsey Road | | Change Station

Höhe 6738 ft 35.63 °N, 105.98 °W | Updated 1 minute ago

Schneefall
Schneefall
36.1 °F
gefühlte 36 °F
N
0.6
Wind Wechselnd Wind aus Ost
Gusts 1.9 mph

Heute
Max. -- | schwach -- °F
--% Regenrisiko
Gestern
Max. -- | schwach -- °F
Precip. -- inch
Druck 29.77 inch
Sichtweite 3.0 Meilen
Wolken Wolkig 500 ft
Bedeckt 1600 ft
Windchill 36 °F
Taupunkt 32 °F
Feuchtigkeit 85%
Regen Nicht verfügbar..
Schneehöhe Nicht verfügbar..
6:15 AM 7:48 PM
Erstes Viertel, 8% visible
SPECI KSAF 282104Z 14007KT 3SM -SN BR BKN005 OVC016 02/02 A2977 RMK AO2 P0001 T00170017
Druck 29.77 inch
Sichtweite 3.0 Meilen
Wolken Wolkig 500 ft
Bedeckt 1600 ft
Windchill 36 °F
Taupunkt 32 °F
Feuchtigkeit 85%
Regen Nicht verfügbar..
Schneehöhe Nicht verfügbar..
6:15 AM 7:48 PM
Erstes Viertel, 8% visible
SPECI KSAF 282104Z 14007KT 3SM -SN BR BKN005 OVC016 02/02 A2977 RMK AO2 P0001 T00170017

Get Severe Weather Alerts

Thanks for signing up!

Be on the lookout for a verification email in your inbox.

You'll start receiving the daily forecast at 8 AM.

×

10-Day Weather Forecast

Almanac

Astronomie

Apr. 28, 2017 Aufgang Untergang
Genaue Zeit
Bürgerliche Dämmerung
Nautische Dämmerung
Astronomische Dämmerung
Mond
Länge des sichtbaren Lichts
Tageslänge
Tomorrow will be .
, % of the Moon is Illuminated

Heutige Rekorde

State Highs State Lows

Community

WunderPhotos

WunderBlog® & News

Nearby

Luftqualität

  Luftqualität LQ Index Schadstoff
Not available.

Schneehöhe

Station Depth Höhe

Erdbebenaktivität

Stadt Distance Mag. Time & Date
Minimum magnitude displayed is 2.5.

küstennahe Wassertemperaturen

Ort Temperatur

Stations

Wetterstationen in der Umgebung

Stationsstandort Temp. Windchill Taupunkt Feuchtigkeit Wind Precip. Höhe Aktualisiert Art
                   

Watches & Warnings

There are currently no watches in effect.